createdAt,value
2022-09-26T00:01:38.362Z,10.20
2022-09-26T00:04:12.913Z,6.90
2022-09-26T00:06:41.124Z,7.00
2022-09-26T00:09:09.492Z,9.00
2022-09-26T00:11:39.472Z,8.00
2022-09-26T00:14:12.290Z,8.30
2022-09-26T00:16:40.458Z,10.30
2022-09-26T00:19:08.577Z,5.70
2022-09-26T00:21:37.770Z,6.10
2022-09-26T00:24:06.880Z,6.00
2022-09-26T00:26:36.521Z,6.20
2022-09-26T00:29:07.536Z,7.10
2022-09-26T00:31:40.277Z,6.50
2022-09-26T00:34:08.610Z,5.60
2022-09-26T00:36:38.734Z,6.70
2022-09-26T00:39:09.436Z,5.90
2022-09-26T00:41:38.177Z,5.30
2022-09-26T00:44:34.710Z,7.60
2022-09-26T00:47:04.472Z,5.80
2022-09-26T00:49:44.241Z,6.30
2022-09-26T00:52:21.755Z,5.90
2022-09-26T00:54:54.159Z,5.70
2022-09-26T00:57:29.310Z,9.50
2022-09-26T01:00:02.882Z,7.80
2022-09-26T01:02:31.640Z,5.30
2022-09-26T01:05:01.872Z,9.30
2022-09-26T01:07:30.367Z,7.20
2022-09-26T01:09:59.035Z,6.10
2022-09-26T01:12:27.210Z,5.10
2022-09-26T01:14:56.105Z,5.80
2022-09-26T01:17:25.206Z,6.90
2022-09-26T01:20:18.025Z,5.00
2022-09-26T01:22:55.279Z,9.90
2022-09-26T01:25:54.026Z,6.50
2022-09-26T01:28:25.094Z,8.40
2022-09-26T01:31:01.857Z,5.40
2022-09-26T01:33:49.869Z,9.80
2022-09-26T01:36:39.505Z,7.40
2022-09-26T01:39:25.989Z,7.00
2022-09-26T01:41:59.747Z,7.50
2022-09-26T01:44:50.523Z,5.70
2022-09-26T01:47:26.503Z,7.00
2022-09-26T01:50:01.413Z,5.50
2022-09-26T01:52:39.557Z,10.10
2022-09-26T01:55:17.764Z,6.90
2022-09-26T01:57:54.146Z,4.80
2022-09-26T02:00:22.493Z,6.40
2022-09-26T02:02:51.877Z,5.40
2022-09-26T02:05:33.244Z,6.80
2022-09-26T02:08:14.911Z,6.50
2022-09-26T02:10:50.563Z,5.60
2022-09-26T02:13:23.650Z,5.20
2022-09-26T02:15:57.672Z,8.40
2022-09-26T02:18:33.290Z,7.30
2022-09-26T02:21:07.065Z,9.70
2022-09-26T02:23:35.148Z,7.40
2022-09-26T02:26:04.215Z,9.40
2022-09-26T02:28:33.077Z,7.10
2022-09-26T02:31:06.225Z,4.70
2022-09-26T02:33:35.377Z,6.70
2022-09-26T02:36:07.535Z,9.30
2022-09-26T02:38:37.783Z,13.60
2022-09-26T02:41:34.694Z,7.10
2022-09-26T02:44:29.166Z,5.60
2022-09-26T02:47:09.981Z,3.90
2022-09-26T02:50:08.315Z,5.30
2022-09-26T02:52:43.565Z,4.10
2022-09-26T02:55:21.802Z,5.10
2022-09-26T02:57:55.792Z,5.80
2022-09-26T03:00:28.961Z,3.70
2022-09-26T03:03:00.109Z,5.10
2022-09-26T03:05:30.940Z,3.50
2022-09-26T03:08:23.252Z,6.00
2022-09-26T03:10:54.944Z,5.70
2022-09-26T03:13:24.918Z,4.50
2022-09-26T03:15:56.697Z,4.30
2022-09-26T03:18:32.639Z,3.90
2022-09-26T03:21:02.344Z,5.30
2022-09-26T03:23:30.840Z,4.70
2022-09-26T03:26:16.680Z,5.70
2022-09-26T03:28:53.886Z,7.50
2022-09-26T03:31:24.890Z,5.10
2022-09-26T03:33:59.969Z,6.20
2022-09-26T03:36:28.776Z,4.70
2022-09-26T03:38:57.022Z,5.50
2022-09-26T03:41:40.511Z,4.40
2022-09-26T03:44:17.613Z,5.60
2022-09-26T03:47:05.165Z,4.50
2022-09-26T03:49:37.136Z,6.20
2022-09-26T03:52:07.668Z,4.10
2022-09-26T03:54:35.986Z,4.70
2022-09-26T03:57:04.168Z,5.60
2022-09-26T03:59:34.268Z,5.00
2022-09-26T04:02:02.693Z,5.40
2022-09-26T04:04:36.977Z,11.70
2022-09-26T04:07:06.182Z,15.10
2022-09-26T04:09:34.443Z,7.40
2022-09-26T04:12:02.517Z,5.40
2022-09-26T04:14:33.500Z,5.90
2022-09-26T04:17:03.462Z,7.40
2022-09-26T04:19:38.211Z,5.90
2022-09-26T04:22:08.595Z,10.20
2022-09-26T04:24:37.029Z,4.50
2022-09-26T04:27:05.813Z,3.90
2022-09-26T04:29:34.883Z,4.30
2022-09-26T04:32:17.817Z,4.70
2022-09-26T04:35:01.852Z,4.00
2022-09-26T04:37:31.383Z,3.90
2022-09-26T04:39:59.755Z,5.50
2022-09-26T04:42:28.642Z,4.90
2022-09-26T04:44:57.146Z,7.50
2022-09-26T04:47:25.608Z,4.70
2022-09-26T04:50:12.335Z,8.10
2022-09-26T04:52:41.189Z,5.10
2022-09-26T04:55:09.495Z,6.30
2022-09-26T04:57:38.818Z,7.80
2022-09-26T05:00:08.310Z,5.30
2022-09-26T05:02:36.692Z,5.60
2022-09-26T05:05:06.935Z,6.30
2022-09-26T05:07:40.416Z,5.90
2022-09-26T05:10:12.838Z,9.20
2022-09-26T05:12:48.081Z,6.00
2022-09-26T05:15:16.137Z,7.00
2022-09-26T05:17:45.568Z,6.10
2022-09-26T05:20:14.347Z,9.50
2022-09-26T05:22:57.577Z,5.10
2022-09-26T05:25:47.747Z,6.40
2022-09-26T05:28:16.331Z,6.90
2022-09-26T05:30:44.435Z,6.90
2022-09-26T05:33:13.578Z,7.50
2022-09-26T05:35:41.429Z,6.30
2022-09-26T05:38:09.654Z,8.70
2022-09-26T05:40:59.349Z,8.40
2022-09-26T05:43:30.970Z,6.20
2022-09-26T05:46:00.089Z,7.10
2022-09-26T05:48:32.376Z,8.30
2022-09-26T05:51:06.572Z,5.70
2022-09-26T05:53:35.147Z,8.80
2022-09-26T05:56:04.642Z,7.30
2022-09-26T05:58:40.325Z,9.10
2022-09-26T06:01:16.838Z,7.40
2022-09-26T06:03:46.942Z,15.30
2022-09-26T06:06:21.060Z,11.40
2022-09-26T06:08:54.773Z,8.00
2022-09-26T06:11:50.564Z,7.60
2022-09-26T06:14:18.296Z,10.10
2022-09-26T06:16:48.737Z,7.00
2022-09-26T06:19:22.052Z,8.20
2022-09-26T06:21:51.830Z,6.20
2022-09-26T06:24:21.430Z,6.20
2022-09-26T06:26:52.671Z,9.50
2022-09-26T06:29:20.949Z,9.60
2022-09-26T06:31:49.486Z,11.60
2022-09-26T06:34:17.590Z,11.70
2022-09-26T06:37:05.701Z,6.70
2022-09-26T06:39:37.342Z,11.70
2022-09-26T06:42:07.788Z,7.80
2022-09-26T06:44:59.154Z,8.40
2022-09-26T06:47:31.745Z,9.00
2022-09-26T06:50:18.538Z,10.70
2022-09-26T06:52:52.846Z,7.00
2022-09-26T06:55:22.862Z,6.90
2022-09-26T06:57:51.053Z,8.00
2022-09-26T07:00:19.980Z,8.40
2022-09-26T07:03:07.856Z,12.40
2022-09-26T07:05:51.946Z,5.90
2022-09-26T07:08:28.720Z,5.90
2022-09-26T07:11:28.258Z,13.50
2022-09-26T07:13:54.355Z,9.90
2022-09-26T07:16:24.268Z,5.80
2022-09-26T07:19:04.827Z,12.50
2022-09-26T07:21:39.233Z,8.20
2022-09-26T07:24:14.297Z,9.00
2022-09-26T07:26:43.745Z,5.50
2022-09-26T07:29:12.625Z,7.40
2022-09-26T07:31:41.511Z,8.80
2022-09-26T07:34:18.311Z,6.20
2022-09-26T07:36:47.641Z,6.60
2022-09-26T07:39:16.207Z,10.10
2022-09-26T07:41:46.799Z,12.00
2022-09-26T07:45:09.676Z,9.50
2022-09-26T07:47:22.130Z,10.00
2022-09-26T07:50:08.918Z,7.30
2022-09-26T07:52:46.157Z,14.00
2022-09-26T07:55:27.575Z,9.50
2022-09-26T07:58:10.421Z,8.10
2022-09-26T08:01:18.400Z,7.40
2022-09-26T08:04:12.065Z,8.60
2022-09-26T08:06:42.537Z,9.00
2022-09-26T08:09:11.742Z,9.30
2022-09-26T08:11:58.443Z,9.50
2022-09-26T08:14:49.253Z,9.50
2022-09-26T08:17:26.441Z,12.50
2022-09-26T08:19:54.864Z,14.20
2022-09-26T08:22:23.107Z,6.80
2022-09-26T08:24:55.105Z,7.50
2022-09-26T08:27:34.170Z,6.50
2022-09-26T08:30:03.167Z,6.20
2022-09-26T08:32:33.487Z,5.80
2022-09-26T08:35:02.115Z,6.40
2022-09-26T08:37:57.295Z,8.80
2022-09-26T08:40:59.667Z,8.10
2022-09-26T08:44:08.100Z,5.60
2022-09-26T08:47:12.088Z,10.00
2022-09-26T08:50:18.690Z,9.50
2022-09-26T08:52:54.445Z,15.50
2022-09-26T08:55:46.958Z,7.50
2022-09-26T08:58:29.148Z,8.70
2022-09-26T09:01:04.640Z,5.90
2022-09-26T09:04:02.628Z,9.80
2022-09-26T09:06:32.686Z,7.10
2022-09-26T09:09:01.185Z,8.40
2022-09-26T09:12:06.013Z,11.00
2022-09-26T09:15:26.660Z,6.80
2022-09-26T09:18:29.787Z,9.90
2022-09-26T09:21:43.549Z,14.70
2022-09-26T09:24:25.114Z,8.60
2022-09-26T09:30:21.613Z,7.10
2022-09-26T09:33:17.206Z,7.30
2022-09-26T09:35:57.852Z,7.90
2022-09-26T09:38:37.868Z,6.10
2022-09-26T09:41:21.556Z,6.10
2022-09-26T09:43:54.883Z,7.60
2022-09-26T09:46:38.409Z,6.80
2022-09-26T09:49:09.691Z,6.40
2022-09-26T09:51:51.458Z,6.90
2022-09-26T09:54:47.728Z,8.20
2022-09-26T09:57:18.941Z,7.20
2022-09-26T09:59:56.035Z,7.70
2022-09-26T10:02:37.211Z,6.70
2022-09-26T10:05:20.326Z,6.80
2022-09-26T10:07:49.765Z,6.10
2022-09-26T10:11:12.886Z,6.30
2022-09-26T10:14:07.435Z,6.60
2022-09-26T10:17:09.256Z,9.70
2022-09-26T10:19:45.231Z,5.70
2022-09-26T10:22:37.574Z,5.50
2022-09-26T10:25:17.055Z,6.30
2022-09-26T10:27:55.384Z,5.60
2022-09-26T10:30:28.398Z,5.80
2022-09-26T10:33:04.464Z,7.00
2022-09-26T10:36:21.852Z,5.50
2022-09-26T10:39:17.426Z,6.10
2022-09-26T10:41:47.613Z,5.90
2022-09-26T10:44:27.924Z,6.10
2022-09-26T10:47:18.923Z,6.90
2022-09-26T10:50:08.210Z,7.10
2022-09-26T10:52:50.614Z,7.00
2022-09-26T10:58:08.974Z,5.50
2022-09-26T11:00:43.649Z,5.40
2022-09-26T11:03:22.102Z,5.50
2022-09-26T11:06:29.134Z,5.30
2022-09-26T11:09:05.322Z,5.80
2022-09-26T11:12:26.813Z,5.60
2022-09-26T11:15:06.094Z,6.00
2022-09-26T11:17:48.150Z,5.50
2022-09-26T11:20:40.774Z,5.30
2022-09-26T11:23:17.505Z,5.70
2022-09-26T11:25:58.220Z,5.10
2022-09-26T11:28:38.457Z,4.80
2022-09-26T11:31:35.542Z,5.50
2022-09-26T11:34:36.231Z,5.20
2022-09-26T11:37:13.115Z,5.30
2022-09-26T11:40:10.129Z,7.90
2022-09-26T11:43:16.796Z,5.40
2022-09-26T11:46:23.295Z,4.50
2022-09-26T11:49:50.868Z,4.70
2022-09-26T11:52:49.507Z,4.20
2022-09-26T11:55:20.658Z,7.60
2022-09-26T11:58:15.156Z,4.40
2022-09-26T12:00:58.063Z,4.90
2022-09-26T12:04:00.397Z,5.00
2022-09-26T12:06:37.546Z,4.30
2022-09-26T12:09:47.978Z,4.30
2022-09-26T12:12:24.557Z,5.10
2022-09-26T12:15:31.354Z,5.00
2022-09-26T12:18:22.301Z,5.60
2022-09-26T12:20:53.878Z,7.30
2022-09-26T12:23:35.618Z,6.10
2022-09-26T12:26:27.542Z,6.60
2022-09-26T12:28:58.447Z,6.90
2022-09-26T12:31:56.166Z,6.60
2022-09-26T12:34:44.773Z,5.90
2022-09-26T12:38:00.256Z,7.30
2022-09-26T12:40:34.571Z,6.60
2022-09-26T12:43:19.348Z,7.30
2022-09-26T12:46:11.156Z,5.60
2022-09-26T12:49:13.777Z,5.00
2022-09-26T12:51:52.309Z,4.20
2022-09-26T12:54:57.458Z,4.20
2022-09-26T12:57:30.721Z,4.10
2022-09-26T13:00:14.259Z,5.20
2022-09-26T13:03:10.210Z,3.80
2022-09-26T13:05:41.454Z,7.30
2022-09-26T13:08:38.944Z,5.50
2022-09-26T13:11:13.113Z,6.70
2022-09-26T13:13:55.800Z,7.50
2022-09-26T13:16:47.073Z,4.30
2022-09-26T13:19:35.780Z,5.80
2022-09-26T13:22:09.380Z,5.60
2022-09-26T13:24:47.944Z,5.30
2022-09-26T13:27:34.571Z,8.20
2022-09-26T13:30:13.360Z,4.60
2022-09-26T13:33:11.143Z,10.30
2022-09-26T13:35:54.709Z,5.20
2022-09-26T13:38:54.905Z,5.80
2022-09-26T13:41:52.095Z,8.00
2022-09-26T13:44:38.134Z,6.40
2022-09-26T13:47:30.606Z,7.40
2022-09-26T13:50:19.961Z,5.10
2022-09-26T13:53:08.099Z,6.90
2022-09-26T13:55:36.591Z,8.00
2022-09-26T13:58:19.259Z,5.50
2022-09-26T14:00:53.633Z,5.20
2022-09-26T14:03:23.654Z,5.40
2022-09-26T14:06:07.423Z,6.10
2022-09-26T14:08:55.312Z,7.90
2022-09-26T14:11:46.054Z,6.30
2022-09-26T14:14:18.335Z,6.10
2022-09-26T14:17:02.842Z,6.00
2022-09-26T14:19:41.220Z,6.20
2022-09-26T14:22:21.576Z,7.10
2022-09-26T14:27:18.270Z,5.50
2022-09-26T14:29:54.052Z,8.40
2022-09-26T14:32:27.224Z,5.10
2022-09-26T14:34:59.337Z,11.90
2022-09-26T14:37:39.525Z,5.90
2022-09-26T14:40:10.384Z,6.60
2022-09-26T14:42:58.843Z,5.30
2022-09-26T14:45:44.746Z,5.00
2022-09-26T14:48:26.043Z,5.50
2022-09-26T14:51:04.761Z,8.60
2022-09-26T14:53:47.893Z,6.50
2022-09-26T14:56:38.552Z,7.90
2022-09-26T14:59:24.802Z,5.90
2022-09-26T15:02:09.860Z,6.90
2022-09-26T15:04:38.932Z,7.90
2022-09-26T15:07:16.319Z,6.00
2022-09-26T15:10:02.553Z,5.90
2022-09-26T15:12:52.547Z,5.60
2022-09-26T15:15:47.597Z,7.60
2022-09-26T15:18:27.868Z,9.00
2022-09-26T15:21:29.483Z,6.90
2022-09-26T15:23:57.739Z,7.60
2022-09-26T15:26:34.883Z,8.80
2022-09-26T15:29:07.278Z,9.20
2022-09-26T15:31:41.758Z,5.80
2022-09-26T15:34:21.765Z,9.20
2022-09-26T15:36:58.190Z,7.20
2022-09-26T15:39:32.829Z,9.10
2022-09-26T15:42:31.835Z,5.40
2022-09-26T15:45:01.673Z,12.30
2022-09-26T15:47:30.033Z,7.10
2022-09-26T15:50:23.624Z,8.50
2022-09-26T15:53:06.094Z,7.80
2022-09-26T15:55:42.656Z,14.90
2022-09-26T15:58:15.901Z,18.30
2022-09-26T16:00:49.065Z,15.50
2022-09-26T16:03:55.425Z,10.50
2022-09-26T16:06:30.901Z,9.60
2022-09-26T16:09:06.112Z,9.50
2022-09-26T16:11:51.596Z,8.50
2022-09-26T16:14:29.232Z,10.10
2022-09-26T16:17:24.073Z,9.70
2022-09-26T16:19:58.378Z,9.90
2022-09-26T16:22:52.506Z,7.80
2022-09-26T16:25:53.625Z,8.60
2022-09-26T16:28:42.772Z,7.70
2022-09-26T16:31:28.177Z,7.80
2022-09-26T16:33:58.633Z,10.60
2022-09-26T16:36:33.210Z,13.00
2022-09-26T16:39:04.811Z,12.90
2022-09-26T16:42:02.255Z,10.50
2022-09-26T16:44:41.117Z,9.60
2022-09-26T16:47:44.117Z,7.40
2022-09-26T16:50:29.318Z,7.60
2022-09-26T16:52:57.797Z,7.30
2022-09-26T16:55:27.458Z,20.80
2022-09-26T16:58:05.911Z,7.50
2022-09-26T17:00:53.952Z,8.50
2022-09-26T17:03:24.621Z,6.40
2022-09-26T17:05:55.673Z,9.90
2022-09-26T17:08:26.506Z,9.20
2022-09-26T17:10:57.414Z,8.30
2022-09-26T17:13:27.614Z,9.10
2022-09-26T17:15:58.207Z,7.70
2022-09-26T17:18:29.695Z,8.20
2022-09-26T17:20:59.290Z,9.40
2022-09-26T17:23:44.561Z,7.70
2022-09-26T17:26:21.546Z,8.00
2022-09-26T17:28:53.353Z,8.40
2022-09-26T17:31:21.559Z,9.60
2022-09-26T17:33:53.455Z,9.30
2022-09-26T17:36:24.808Z,10.40
2022-09-26T17:38:53.750Z,9.20
2022-09-26T17:41:23.204Z,8.30
2022-09-26T17:44:00.666Z,9.00
2022-09-26T17:46:29.743Z,12.10
2022-09-26T17:48:59.334Z,18.10
2022-09-26T17:51:27.287Z,63.50
2022-09-26T17:53:57.558Z,38.80
2022-09-26T17:56:26.699Z,35.30
2022-09-26T17:58:57.325Z,24.20
2022-09-26T18:01:34.526Z,22.10
2022-09-26T18:04:07.333Z,11.00
2022-09-26T18:06:37.041Z,16.50
2022-09-26T18:09:07.543Z,12.10
2022-09-26T18:11:37.535Z,11.50
2022-09-26T18:14:08.069Z,10.40
2022-09-26T18:19:14.143Z,10.10
2022-09-26T18:21:42.122Z,11.70
2022-09-26T18:24:19.410Z,9.50
2022-09-26T18:26:51.187Z,9.20
2022-09-26T18:29:35.917Z,12.10
2022-09-26T18:32:12.071Z,10.20
2022-09-26T18:34:41.255Z,10.30
2022-09-26T18:37:09.398Z,10.60
2022-09-26T18:39:37.397Z,9.80
2022-09-26T18:42:09.443Z,9.80
2022-09-26T18:44:37.740Z,10.50
2022-09-26T18:47:13.508Z,9.60
2022-09-26T18:49:42.035Z,17.60
2022-09-26T18:52:18.120Z,12.90
2022-09-26T18:54:47.050Z,13.00
2022-09-26T18:57:33.477Z,10.50
2022-09-26T19:00:02.791Z,12.70
2022-09-26T19:02:38.398Z,69.70
2022-09-26T19:05:10.150Z,148.00
2022-09-26T19:07:38.324Z,127.00
2022-09-26T19:10:10.438Z,30.50
2022-09-26T19:12:39.640Z,28.90
2022-09-26T19:15:14.977Z,25.50
2022-09-26T19:17:43.511Z,26.90
2022-09-26T19:20:11.448Z,31.40
2022-09-26T19:22:39.959Z,30.40
2022-09-26T19:25:10.513Z,28.40
2022-09-26T19:27:48.940Z,24.40
2022-09-26T19:30:20.364Z,27.30
2022-09-26T19:32:52.900Z,22.90
2022-09-26T19:35:30.455Z,31.80
2022-09-26T19:38:00.440Z,33.70
2022-09-26T19:40:29.119Z,39.80
2022-09-26T19:42:58.366Z,42.10
2022-09-26T19:45:27.055Z,45.10
2022-09-26T19:47:56.411Z,49.90
2022-09-26T19:50:28.732Z,47.10
2022-09-26T19:53:00.942Z,48.40
2022-09-26T19:55:31.520Z,52.90
2022-09-26T19:58:12.953Z,63.80
2022-09-26T20:00:43.635Z,71.90
2022-09-26T20:03:19.469Z,66.90
2022-09-26T20:05:49.479Z,63.80
2022-09-26T20:08:25.288Z,66.10
2022-09-26T20:10:55.679Z,61.70
2022-09-26T20:15:51.873Z,54.40
2022-09-26T20:18:24.323Z,54.50
2022-09-26T20:20:55.837Z,51.10
2022-09-26T20:23:26.930Z,60.20
2022-09-26T20:25:55.764Z,66.30
2022-09-26T20:28:23.994Z,58.70
2022-09-26T20:30:52.012Z,57.10
2022-09-26T20:33:22.397Z,54.90
2022-09-26T20:36:11.520Z,51.90
2022-09-26T20:38:42.580Z,56.10
2022-09-26T20:41:19.005Z,53.00
2022-09-26T20:43:51.818Z,53.70
2022-09-26T20:46:22.204Z,58.80
2022-09-26T20:51:23.631Z,52.80
2022-09-26T20:53:52.125Z,53.30
2022-09-26T20:56:21.310Z,50.40
2022-09-26T20:58:50.068Z,50.40
2022-09-26T21:01:20.389Z,53.90
2022-09-26T21:06:23.479Z,46.80
2022-09-26T21:08:51.445Z,43.40
2022-09-26T21:11:21.138Z,42.80
2022-09-26T21:13:49.577Z,45.70
2022-09-26T21:16:21.825Z,69.80
2022-09-26T21:18:52.547Z,68.60
2022-09-26T21:24:15.951Z,52.80
2022-09-26T21:26:43.909Z,48.40
2022-09-26T21:29:15.838Z,50.10
2022-09-26T21:31:49.482Z,47.60
2022-09-26T21:34:26.942Z,50.50
2022-09-26T21:36:57.495Z,42.70
2022-09-26T21:39:26.516Z,44.70
2022-09-26T21:41:58.735Z,46.90
2022-09-26T21:44:42.985Z,46.10
2022-09-26T21:47:11.287Z,44.50
2022-09-26T21:49:39.315Z,43.00
2022-09-26T21:52:12.688Z,43.90
2022-09-26T21:54:44.310Z,54.50
2022-09-26T21:57:29.339Z,76.10
2022-09-26T21:59:58.756Z,48.50
2022-09-26T22:02:27.668Z,42.10
2022-09-26T22:04:56.035Z,37.60
2022-09-26T22:07:24.173Z,37.60
2022-09-26T22:09:52.689Z,46.50
2022-09-26T22:12:20.906Z,38.00
2022-09-26T22:14:48.857Z,97.40
2022-09-26T22:17:17.508Z,101.20
2022-09-26T22:19:45.591Z,89.10
2022-09-26T22:22:13.647Z,97.30
2022-09-26T22:24:41.740Z,83.90
2022-09-26T22:27:09.807Z,72.70
2022-09-26T22:29:37.822Z,64.30
2022-09-26T22:32:06.572Z,61.80
2022-09-26T22:34:34.779Z,59.10
2022-09-26T22:37:02.975Z,60.90
2022-09-26T22:39:31.047Z,52.90
2022-09-26T22:41:58.988Z,49.60
2022-09-26T22:44:27.457Z,46.60
2022-09-26T22:46:55.768Z,37.20
2022-09-26T22:49:24.303Z,35.30
2022-09-26T22:51:53.003Z,31.30
2022-09-26T22:54:21.007Z,28.40
2022-09-26T22:56:49.319Z,28.70
2022-09-26T22:59:17.360Z,61.00
2022-09-26T23:01:45.432Z,97.90
2022-09-26T23:04:13.334Z,100.00
2022-09-26T23:06:41.498Z,116.00
2022-09-26T23:09:09.768Z,56.40
2022-09-26T23:11:38.089Z,36.00
2022-09-26T23:14:06.866Z,29.40
2022-09-26T23:16:34.909Z,25.80
2022-09-26T23:19:03.256Z,24.20
2022-09-26T23:21:31.248Z,23.40
2022-09-26T23:24:00.619Z,22.30
2022-09-26T23:26:32.070Z,27.70
2022-09-26T23:29:00.654Z,24.20
2022-09-26T23:31:29.021Z,22.00
2022-09-26T23:33:57.946Z,24.70
2022-09-26T23:36:26.067Z,26.40
2022-09-26T23:38:57.456Z,29.60
2022-09-26T23:41:26.009Z,28.70
2022-09-26T23:43:54.274Z,27.40
2022-09-26T23:46:22.478Z,30.10
2022-09-26T23:48:51.092Z,28.20
2022-09-26T23:51:19.663Z,28.10
2022-09-26T23:53:48.918Z,24.70
2022-09-26T23:56:17.061Z,25.20
2022-09-26T23:58:44.957Z,27.60
